Time;durP1;ratioP1;P1;durP2;ratioP2;P2;SDS_P1;SDS_P2;PMS_P1;PMS_P2;Temp;Humidity;BMP_temperature;BMP_pressure;BME280_temperature;BME280_humidity;BME280_pressure;Samples;Min_cycle;Max_cycle;Signal;HPM_P1;HPM_P2
2023/09/30 00:00:34;;;;;;;11.57;7.15;;;17.60;99.90;;;;;;5031603;28;20471;-56
2023/09/30 00:03:00;;;;;;;14.10;7.55;;;17.60;99.90;;;;;;4998557;28;20081;-56
2023/09/30 00:05:26;;;;;;;11.43;7.72;;;17.30;99.90;;;;;;5031319;28;20463;-56
2023/09/30 00:07:51;;;;;;;13.73;8.00;;;17.00;99.90;;;;;;5031473;28;20145;-56
2023/09/30 00:10:17;;;;;;;12.82;7.80;;;16.70;99.90;;;;;;5031419;28;20034;-56
2023/09/30 00:12:43;;;;;;;12.35;7.85;;;17.20;99.90;;;;;;5031319;28;20045;-56
2023/09/30 00:15:09;;;;;;;13.93;8.30;;;17.30;99.90;;;;;;5031233;28;20396;-55
2023/09/30 00:17:35;;;;;;;16.13;7.93;;;17.30;99.90;;;;;;5031086;28;20042;-56
2023/09/30 00:20:01;;;;;;;13.70;8.57;;;17.40;99.90;;;;;;5031282;28;20040;-56
2023/09/30 00:22:27;;;;;;;13.13;8.35;;;17.40;99.90;;;;;;5047542;28;20060;-56
2023/09/30 00:24:52;;;;;;;13.73;7.63;;;17.40;99.90;;;;;;5053222;28;20037;-55
2023/09/30 00:27:18;;;;;;;16.33;7.75;;;17.40;99.90;;;;;;5017869;28;20087;-56
2023/09/30 00:29:44;;;;;;;13.27;8.50;;;17.40;99.90;;;;;;5053346;28;20373;-55
2023/09/30 00:32:10;;;;;;;13.13;8.60;;;17.40;99.90;;;;;;5051217;28;20128;-55
2023/09/30 00:34:36;;;;;;;12.98;7.82;;;17.40;99.90;;;;;;5052882;28;20060;-55
2023/09/30 00:37:02;;;;;;;11.18;8.00;;;17.10;99.90;;;;;;5053131;28;20021;-55
2023/09/30 00:39:30;;;;;;;16.65;8.43;;;17.00;99.90;;;;;;5052851;28;20047;-55
2023/09/30 00:42:00;;;;;;;19.10;8.48;;;17.20;99.90;;;;;;5053230;28;20025;-55
2023/09/30 00:44:27;;;;;;;13.40;8.05;;;17.30;99.90;;;;;;5052771;28;20035;-56
2023/09/30 00:46:57;;;;;;;19.10;8.00;;;17.30;99.90;;;;;;5052313;28;20036;-56
2023/09/30 00:49:25;;;;;;;11.90;8.05;;;17.30;99.90;;;;;;5052676;28;20025;-56
2023/09/30 00:51:51;;;;;;;13.93;8.60;;;17.30;99.90;;;;;;5034860;28;20369;-55
2023/09/30 00:54:18;;;;;;;15.90;8.57;;;17.30;99.90;;;;;;5053157;28;20033;-56
2023/09/30 00:56:46;;;;;;;11.18;8.85;;;17.20;99.90;;;;;;5052892;28;20060;-55
2023/09/30 00:59:16;;;;;;;13.50;9.18;;;16.90;99.90;;;;;;5052739;28;20025;-55
2023/09/30 01:01:46;;;;;;;14.70;8.32;;;16.90;99.90;;;;;;5052650;28;20550;-55
2023/09/30 01:04:12;;;;;;;18.42;9.02;;;17.00;99.90;;;;;;5054332;28;20067;-55
2023/09/30 01:06:39;;;;;;;12.05;9.13;;;17.10;99.90;;;;;;5056597;28;20036;-55
2023/09/30 01:09:04;;;;;;;12.68;9.52;;;17.10;99.90;;;;;;5056609;28;20060;-55
2023/09/30 01:11:31;;;;;;;21.65;9.88;;;17.00;99.90;;;;;;5056729;28;20056;-56
2023/09/30 01:13:57;;;;;;;15.05;9.52;;;17.10;99.90;;;;;;5056626;28;20499;-55
2023/09/30 01:16:23;;;;;;;23.42;10.38;;;17.10;99.90;;;;;;5056578;28;20083;-55
2023/09/30 01:18:49;;;;;;;20.45;11.63;;;17.10;99.90;;;;;;4995103;28;20158;-55
2023/09/30 01:21:15;;;;;;;15.73;10.13;;;17.00;99.90;;;;;;4995211;28;20061;-55
2023/09/30 01:23:43;;;;;;;15.15;9.13;;;17.00;99.90;;;;;;4994890;28;20125;-55
2023/09/30 01:26:12;;;;;;;14.75;8.77;;;17.00;99.90;;;;;;4994946;28;20070;-55
2023/09/30 01:28:38;;;;;;;12.63;7.90;;;17.00;99.90;;;;;;4994863;28;20042;-55
2023/09/30 01:31:04;;;;;;;12.45;7.18;;;17.00;99.90;;;;;;4939434;29;20383;-55
2023/09/30 01:33:30;;;;;;;9.90;8.00;;;16.90;99.90;;;;;;4923561;29;20050;-55
2023/09/30 01:35:55;;;;;;;12.93;7.85;;;16.90;99.90;;;;;;4972018;28;20111;-56
2023/09/30 01:38:21;;;;;;;11.82;7.30;;;16.90;99.90;;;;;;4971830;28;20065;-56
2023/09/30 01:40:47;;;;;;;11.93;7.35;;;17.00;99.90;;;;;;4955841;29;20043;-55
2023/09/30 01:43:14;;;;;;;9.82;7.00;;;16.90;99.90;;;;;;4955815;29;20384;-56
2023/09/30 01:45:40;;;;;;;8.77;6.88;;;17.00;99.90;;;;;;4955554;29;20039;-56
2023/09/30 01:48:06;;;;;;;11.60;6.75;;;16.90;99.90;;;;;;4955775;29;20470;-56
2023/09/30 01:50:32;;;;;;;14.23;7.30;;;16.90;99.90;;;;;;4987241;28;20034;-56
2023/09/30 01:52:58;;;;;;;24.10;7.32;;;16.70;99.90;;;;;;4994292;28;20552;-56
2023/09/30 01:55:24;;;;;;;14.95;7.68;;;16.80;99.90;;;;;;4994480;28;20027;-56
2023/09/30 01:57:50;;;;;;;9.07;7.55;;;16.80;99.90;;;;;;4994329;28;20062;-56
2023/09/30 02:00:17;;;;;;;14.23;7.15;;;16.90;99.90;;;;;;5010777;28;20441;-56
2023/09/30 02:02:44;;;;;;;11.60;7.38;;;16.90;99.90;;;;;;5041633;28;20048;-57
2023/09/30 02:05:09;;;;;;;10.63;7.20;;;16.90;99.90;;;;;;5037214;28;20040;-56
2023/09/30 02:07:35;;;;;;;8.50;6.63;;;16.90;99.90;;;;;;5055427;28;20021;-56
2023/09/30 02:10:02;;;;;;;13.05;7.40;;;16.90;99.90;;;;;;5056017;28;20033;-56
2023/09/30 02:12:28;;;;;;;11.93;7.10;;;16.70;99.90;;;;;;5055471;28;20048;-56
2023/09/30 02:14:54;;;;;;;17.23;6.75;;;16.80;99.90;;;;;;5037146;28;20040;-56
2023/09/30 02:17:20;;;;;;;12.20;7.20;;;16.80;99.90;;;;;;5054923;28;20484;-56
2023/09/30 02:19:47;;;;;;;8.88;6.30;;;16.80;99.90;;;;;;5055391;28;20072;-56
2023/09/30 02:22:12;;;;;;;9.40;5.97;;;16.80;99.90;;;;;;5055561;28;20028;-55
2023/09/30 02:24:40;;;;;;;12.80;6.40;;;16.50;99.90;;;;;;5055327;28;20020;-55
2023/09/30 02:27:06;;;;;;;9.30;5.60;;;16.60;99.90;;;;;;5055535;28;20451;-56
2023/09/30 02:29:31;;;;;;;10.57;5.43;;;16.40;99.90;;;;;;5055441;28;20044;-56
2023/09/30 02:31:58;;;;;;;14.05;6.53;;;16.40;99.90;;;;;;5036471;28;20086;-56
2023/09/30 02:34:24;;;;;;;10.73;6.43;;;16.40;99.90;;;;;;5055562;28;20079;-56
2023/09/30 02:36:50;;;;;;;15.38;7.03;;;16.30;99.90;;;;;;5036657;28;20439;-57
2023/09/30 02:39:16;;;;;;;11.18;6.57;;;16.30;99.90;;;;;;5055146;28;20029;-56
2023/09/30 02:41:42;;;;;;;11.60;6.30;;;16.30;99.90;;;;;;5055382;28;20033;-56
2023/09/30 02:44:08;;;;;;;14.93;6.60;;;16.40;99.90;;;;;;5055225;28;20075;-56
2023/09/30 02:46:34;;;;;;;11.45;6.78;;;;;;;;;;5055320;28;20052;-56
2023/09/30 02:49:03;;;;;;;17.88;8.27;;;15.20;99.90;;;;;;5054601;28;20049;-56
2023/09/30 02:51:30;;;;;;;11.50;6.68;;;;;;;;;;5036114;28;20438;-56
2023/09/30 02:53:56;;;;;;;8.95;6.85;;;15.60;99.90;;;;;;5055161;28;20033;-56
2023/09/30 02:56:24;;;;;;;11.52;6.47;;;15.60;99.90;;;;;;5054878;28;20477;-55
2023/09/30 02:58:51;;;;;;;11.40;7.00;;;15.80;99.90;;;;;;5019880;28;20166;-56
2023/09/30 03:01:17;;;;;;;10.73;7.05;;;15.80;99.90;;;;;;5054608;28;20032;-57
2023/09/30 03:03:44;;;;;;;15.00;7.20;;;15.30;99.90;;;;;;5054680;28;20025;-55
2023/09/30 03:06:10;;;;;;;9.70;6.85;;;;;;;;;;5054520;28;20484;-56
2023/09/30 03:08:36;;;;;;;10.45;6.38;;;14.60;99.90;;;;;;5054865;28;20028;-56
2023/09/30 03:11:04;;;;;;;10.77;6.30;;;14.80;99.90;;;;;;5054609;28;20029;-55
2023/09/30 03:13:30;;;;;;;11.30;7.05;;;14.60;99.90;;;;;;5054271;28;20041;-56
2023/09/30 03:15:56;;;;;;;8.52;6.38;;;14.70;99.90;;;;;;5054624;28;20039;-56
2023/09/30 03:18:26;;;;;;;9.52;7.00;;;14.60;99.90;;;;;;5054244;28;20116;-56
2023/09/30 03:21:08;;;;;;;10.70;6.78;;;14.50;99.90;;;;;;5054276;28;20043;-56
2023/09/30 03:23:35;;;;;;;18.15;7.50;;;14.20;99.90;;;;;;5054135;28;20523;-56
2023/09/30 03:26:01;;;;;;;14.38;6.90;;;14.20;99.90;;;;;;5053786;28;20384;-56
2023/09/30 03:28:30;;;;;;;16.58;8.00;;;14.30;99.90;;;;;;5054123;28;20029;-56
2023/09/30 03:30:57;;;;;;;12.88;5.93;;;14.60;99.90;;;;;;5035772;28;20102;-56
2023/09/30 03:33:23;;;;;;;9.23;6.15;;;14.70;99.90;;;;;;5054428;28;20045;-56
2023/09/30 03:35:49;;;;;;;9.48;6.15;;;14.90;99.90;;;;;;5053956;28;20083;-56
2023/09/30 03:38:15;;;;;;;12.00;6.10;;;14.80;99.90;;;;;;5054078;28;20025;-56
2023/09/30 03:40:47;;;;;;;9.43;5.93;;;14.60;99.90;;;;;;5054241;28;20036;-56
2023/09/30 03:43:14;;;;;;;11.95;6.72;;;14.80;99.90;;;;;;5053804;28;20028;-56
2023/09/30 03:45:41;;;;;;;12.43;6.53;;;14.70;99.90;;;;;;5053686;28;20037;-56
2023/09/30 03:48:07;;;;;;;9.57;6.57;;;14.60;99.90;;;;;;5035186;28;20055;-56
2023/09/30 03:50:33;;;;;;;8.88;6.50;;;14.40;99.90;;;;;;5031765;28;20098;-56
2023/09/30 03:53:07;;;;;;;12.93;6.45;;;14.30;99.90;;;;;;5031709;28;20049;-56
2023/09/30 03:55:33;;;;;;;10.70;7.40;;;14.60;99.90;;;;;;5031694;28;20076;-56
2023/09/30 03:57:59;;;;;;;12.68;6.35;;;14.70;99.90;;;;;;4998772;28;20033;-56
2023/09/30 04:00:25;;;;;;;9.45;6.65;;;14.70;99.90;;;;;;5031475;28;20508;-56
2023/09/30 04:02:58;;;;;;;11.73;6.35;;;14.80;99.90;;;;;;5031710;28;20516;-56
2023/09/30 04:05:36;;;;;;;12.68;6.68;;;14.90;99.90;;;;;;5031399;28;20120;-56
2023/09/30 04:08:02;;;;;;;9.25;6.97;;;15.00;99.90;;;;;;5031495;28;20124;-56
2023/09/30 04:10:29;;;;;;;12.73;7.25;;;14.90;99.90;;;;;;5031222;28;20065;-56
2023/09/30 04:12:55;;;;;;;11.75;6.40;;;14.80;99.90;;;;;;5031261;28;20056;-56
2023/09/30 04:15:22;;;;;;;13.30;7.55;;;14.60;99.90;;;;;;5031118;28;20097;-56
2023/09/30 04:17:49;;;;;;;13.13;7.25;;;14.40;99.90;;;;;;5031402;28;20048;-56
2023/09/30 04:20:21;;;;;;;12.32;6.35;;;14.40;99.90;;;;;;5031224;28;20037;-56
2023/09/30 04:22:48;;;;;;;10.43;6.85;;;14.60;99.90;;;;;;5053204;28;20036;-56
2023/09/30 04:25:18;;;;;;;19.63;7.53;;;14.90;99.90;;;;;;5053451;28;20033;-56
2023/09/30 04:27:44;;;;;;;10.65;7.18;;;15.20;99.90;;;;;;5053222;28;20025;-56
2023/09/30 04:30:11;;;;;;;13.35;7.43;;;15.30;99.90;;;;;;5053318;28;20037;-56
2023/09/30 04:32:38;;;;;;;16.38;8.95;;;15.40;99.90;;;;;;5053428;28;20051;-56
2023/09/30 04:35:05;;;;;;;16.55;7.97;;;15.50;99.90;;;;;;5053052;28;20037;-56
2023/09/30 04:37:30;;;;;;;11.77;8.63;;;15.50;99.90;;;;;;5052911;28;20029;-56
2023/09/30 04:39:58;;;;;;;9.75;7.00;;;15.50;99.90;;;;;;5053182;28;20056;-56
2023/09/30 04:42:25;;;;;;;15.05;7.70;;;15.60;99.90;;;;;;5052737;28;20461;-56
2023/09/30 04:44:52;;;;;;;17.15;7.40;;;15.60;99.90;;;;;;5052863;28;20388;-56
2023/09/30 04:47:18;;;;;;;19.02;7.78;;;15.70;99.90;;;;;;5034204;28;20495;-56
2023/09/30 04:49:45;;;;;;;18.25;6.72;;;15.70;99.90;;;;;;5053138;28;20125;-56
2023/09/30 04:52:11;;;;;;;19.20;8.32;;;15.60;99.90;;;;;;5052762;28;20040;-55
2023/09/30 04:54:37;;;;;;;18.52;7.70;;;15.60;99.90;;;;;;5052737;28;20033;-56
2023/09/30 04:57:02;;;;;;;15.82;7.05;;;15.70;99.90;;;;;;5052980;28;20391;-56
2023/09/30 04:59:29;;;;;;;11.25;6.82;;;15.70;99.90;;;;;;5034410;28;20041;-56
2023/09/30 05:01:56;;;;;;;18.92;7.40;;;15.80;99.90;;;;;;5051956;28;20044;-55
2023/09/30 05:04:23;;;;;;;20.70;7.90;;;15.80;99.90;;;;;;5048413;28;20032;-56
2023/09/30 05:06:49;;;;;;;17.85;7.45;;;15.90;99.90;;;;;;5048950;28;20104;-55
2023/09/30 05:09:15;;;;;;;14.65;6.97;;;15.90;99.90;;;;;;5052251;28;20053;-55
2023/09/30 05:11:41;;;;;;;16.80;7.43;;;15.90;99.90;;;;;;5000585;28;20068;-56
2023/09/30 05:14:07;;;;;;;13.75;6.60;;;16.00;99.90;;;;;;5052578;28;20025;-56
2023/09/30 05:16:32;;;;;;;12.10;7.15;;;16.00;99.90;;;;;;4996622;28;20033;-56
2023/09/30 05:18:58;;;;;;;16.20;7.38;;;16.10;99.90;;;;;;5030180;28;20112;-56
2023/09/30 05:21:24;;;;;;;14.48;8.57;;;16.10;99.90;;;;;;5030123;28;20034;-56
2023/09/30 05:23:50;;;;;;;14.65;9.23;;;16.20;99.90;;;;;;5030535;28;20025;-56
2023/09/30 05:26:16;;;;;;;15.18;8.75;;;16.20;99.90;;;;;;5030732;28;20073;-56
2023/09/30 05:28:42;;;;;;;19.27;9.13;;;16.30;99.90;;;;;;5030235;28;20032;-57
2023/09/30 05:31:08;;;;;;;20.60;8.85;;;16.40;99.90;;;;;;5029487;28;20036;-56
2023/09/30 05:33:35;;;;;;;15.05;8.75;;;16.60;99.90;;;;;;5029468;28;20030;-56
2023/09/30 05:36:02;;;;;;;16.27;9.68;;;16.60;99.90;;;;;;5028552;28;20509;-56
2023/09/30 05:38:31;;;;;;;21.65;14.73;;;16.70;99.90;;;;;;5045962;28;20060;-56
2023/09/30 05:40:58;;;;;;;30.75;20.50;;;16.80;99.90;;;;;;5029432;28;20117;-56
2023/09/30 05:43:26;;;;;;;42.45;32.47;;;16.80;99.90;;;;;;5027218;28;20030;-56
2023/09/30 05:45:54;;;;;;;50.80;36.53;;;16.90;99.90;;;;;;5029741;28;20552;-56
2023/09/30 05:48:21;;;;;;;60.45;42.10;;;17.00;99.90;;;;;;5056113;28;20119;-56
2023/09/30 05:50:47;;;;;;;75.65;47.83;;;17.20;99.90;;;;;;5059987;28;20480;-56
2023/09/30 05:53:13;;;;;;;53.63;37.75;;;17.40;99.90;;;;;;5055787;28;20381;-60
2023/09/30 05:55:42;;;;;;;40.22;25.33;;;17.40;99.90;;;;;;5055684;28;20422;-56
2023/09/30 05:58:13;;;;;;;39.88;24.50;;;17.60;99.90;;;;;;5038035;28;20047;-60
2023/09/30 06:00:41;;;;;;;38.55;28.65;;;17.70;99.90;;;;;;5055595;28;20033;-59
2023/09/30 06:03:08;;;;;;;46.80;28.55;;;17.90;99.90;;;;;;5055796;28;20465;-56
2023/09/30 06:05:34;;;;;;;43.67;29.23;;;18.10;99.90;;;;;;5054170;28;20037;-61
2023/09/30 06:08:03;;;;;;;33.25;14.25;;;18.20;99.90;;;;;;5054939;28;20477;-68
2023/09/30 06:10:29;;;;;;;18.40;10.45;;;18.30;99.90;;;;;;5054796;28;20051;-69
2023/09/30 06:12:56;;;;;;;11.43;7.35;;;18.50;99.90;;;;;;5052204;28;20405;-59
2023/09/30 06:15:25;;;;;;;12.80;7.72;;;18.70;99.90;;;;;;5054944;28;20488;-58
2023/09/30 06:17:52;;;;;;;14.88;7.20;;;18.90;99.90;;;;;;5055915;28;20098;-56
2023/09/30 06:20:19;;;;;;;15.20;6.78;;;19.10;99.90;;;;;;5035996;28;20119;-61
2023/09/30 06:22:45;;;;;;;11.25;6.35;;;19.30;99.90;;;;;;5055497;28;20117;-56
2023/09/30 06:25:16;;;;;;;13.80;6.18;;;19.40;99.90;;;;;;5055558;28;20033;-60
2023/09/30 06:27:45;;;;;;;11.15;5.60;;;19.40;99.90;;;;;;5054816;28;20465;-65
2023/09/30 06:30:13;;;;;;;16.40;6.32;;;19.40;99.90;;;;;;5054697;28;20024;-59
2023/09/30 06:32:39;;;;;;;10.38;6.55;;;19.40;99.90;;;;;;5054875;28;20047;-62
2023/09/30 06:35:06;;;;;;;11.88;5.63;;;19.60;99.90;;;;;;5055067;28;20033;-58
2023/09/30 06:37:32;;;;;;;10.10;6.72;;;19.60;99.90;;;;;;5020009;28;20041;-58
2023/09/30 06:39:59;;;;;;;11.70;5.95;;;19.70;99.90;;;;;;5054854;28;20056;-59
2023/09/30 06:42:26;;;;;;;14.70;6.50;;;19.80;99.90;;;;;;5055089;28;20033;-62
2023/09/30 06:44:53;;;;;;;12.13;6.05;;;20.10;99.90;;;;;;5055244;28;20166;-61
2023/09/30 06:47:18;;;;;;;13.00;6.93;;;20.00;99.90;;;;;;5054752;28;20060;-59
2023/09/30 06:49:46;;;;;;;13.02;6.63;;;20.10;99.90;;;;;;5055067;28;20028;-61
2023/09/30 06:52:12;;;;;;;21.17;8.00;;;20.10;99.90;;;;;;5054836;28;20538;-60
2023/09/30 06:54:38;;;;;;;10.85;6.72;;;20.20;99.90;;;;;;5054925;28;20043;-59
2023/09/30 06:57:04;;;;;;;11.23;6.57;;;20.00;99.90;;;;;;5019753;28;20388;-62
2023/09/30 06:59:32;;;;;;;12.60;6.78;;;20.40;99.90;;;;;;5054667;28;20028;-56
2023/09/30 07:01:58;;;;;;;9.38;6.32;;;;;;;;;;5054403;28;20021;-64
2023/09/30 07:04:26;;;;;;;11.10;6.88;;;;;;;;;;5054569;28;20028;-59
2023/09/30 07:06:53;;;;;;;12.85;6.80;;;21.10;99.90;;;;;;5054795;28;20032;-62
2023/09/30 07:09:20;;;;;;;10.43;5.93;;;21.10;99.90;;;;;;5054600;28;20032;-62
2023/09/30 07:11:46;;;;;;;10.20;6.15;;;21.40;99.90;;;;;;5054464;28;20033;-57
2023/09/30 07:14:11;;;;;;;15.50;6.20;;;21.60;99.90;;;;;;5054420;28;20075;-59
2023/09/30 07:16:39;;;;;;;9.73;6.22;;;21.40;99.90;;;;;;5054329;28;20033;-59
2023/09/30 07:19:05;;;;;;;8.90;5.68;;;;;;;;;;5054607;28;20040;-59
2023/09/30 07:21:31;;;;;;;11.00;6.72;;;;;;;;;;5054382;28;20127;-58
2023/09/30 07:23:57;;;;;;;11.88;7.15;;;;;;;;;;5054707;28;20028;-62
2023/09/30 07:26:27;;;;;;;16.20;7.05;;;;;;;;;;5054420;28;20082;-61
2023/09/30 07:28:54;;;;;;;14.93;5.65;;;23.20;99.90;;;;;;5054254;28;20068;-59
2023/09/30 07:31:22;;;;;;;9.15;6.20;;;;;;;;;;5053046;28;20090;-58
2023/09/30 07:33:48;;;;;;;10.07;6.13;;;;;;;;;;5053833;28;20037;-58
2023/09/30 07:36:14;;;;;;;18.85;6.60;;;25.00;99.90;;;;;;5053298;28;20029;-58
2023/09/30 07:38:40;;;;;;;10.38;5.90;;;;;;;;;;5035255;28;20043;-60
2023/09/30 07:41:08;;;;;;;11.55;6.40;;;;;;;;;;5053927;28;20032;-60
2023/09/30 07:43:34;;;;;;;11.65;6.55;;;;;;;;;;5053934;28;20041;-59
2023/09/30 07:46:05;;;;;;;11.25;6.30;;;;;;;;;;5054148;28;20025;-58
2023/09/30 07:48:32;;;;;;;9.18;6.03;;;;;;;;;;5053716;28;20134;-62
2023/09/30 07:50:58;;;;;;;12.57;7.28;;;;;;;;;;5053830;28;20492;-58
2023/09/30 07:53:24;;;;;;;8.38;6.40;;;;;;;;;;5034434;28;20454;-60
2023/09/30 07:55:50;;;;;;;13.18;5.97;;;;;;;;;;5053976;28;20032;-58
2023/09/30 07:58:17;;;;;;;8.35;5.70;;;;;;;;;;5053630;28;20063;-58
2023/09/30 08:00:43;;;;;;;10.98;6.22;;;26.70;99.90;;;;;;5053563;28;20468;-55
2023/09/30 08:03:08;;;;;;;8.82;5.43;;;26.40;99.90;;;;;;5053621;28;20027;-60
2023/09/30 08:05:34;;;;;;;9.77;5.55;;;26.90;99.90;;;;;;5053473;28;20025;-60
2023/09/30 08:08:01;;;;;;;12.20;5.95;;;;;;;;;;5018656;28;20033;-56
2023/09/30 08:10:29;;;;;;;13.73;5.50;;;;;;;;;;5053093;28;20095;-56
2023/09/30 08:12:57;;;;;;;14.38;6.32;;;;;;;;;;5052872;28;20049;-59
2023/09/30 08:15:24;;;;;;;9.45;5.38;;;;;;;;;;5051996;28;20039;-57
2023/09/30 08:17:49;;;;;;;19.85;5.63;;;28.50;99.00;;;;;;5052925;28;20025;-56
2023/09/30 08:20:15;;;;;;;10.52;5.93;;;;;;;;;;5017785;28;20388;-57
2023/09/30 08:22:41;;;;;;;11.90;6.20;;;29.40;99.90;;;;;;5052639;28;20017;-60
2023/09/30 08:25:08;;;;;;;9.55;5.68;;;29.30;97.60;;;;;;5052756;28;20025;-59
2023/09/30 08:27:34;;;;;;;11.73;5.80;;;28.60;97.40;;;;;;5049959;28;20017;-56
2023/09/30 08:30:04;;;;;;;13.23;6.25;;;29.00;98.10;;;;;;5052931;28;20032;-64
2023/09/30 08:32:32;;;;;;;12.93;6.10;;;30.10;96.60;;;;;;5057434;28;20156;-56
2023/09/30 08:34:59;;;;;;;11.25;5.93;;;;;;;;;;5032222;28;20087;-58
2023/09/30 08:37:24;;;;;;;17.48;5.80;;;29.80;96.20;;;;;;5061877;28;20083;-60
2023/09/30 08:39:51;;;;;;;10.20;5.22;;;29.80;96.50;;;;;;5058099;28;20033;-58
2023/09/30 08:42:19;;;;;;;10.05;5.53;;;30.30;96.10;;;;;;5052127;28;20032;-60
2023/09/30 08:44:46;;;;;;;16.63;5.85;;;30.30;99.60;;;;;;5052823;28;20129;-60
2023/09/30 08:47:12;;;;;;;14.80;6.53;;;29.70;95.70;;;;;;5052866;28;20098;-61
2023/09/30 08:49:40;;;;;;;21.13;7.15;;;30.00;95.70;;;;;;5052802;28;20037;-57
2023/09/30 08:52:10;;;;;;;10.07;5.18;;;29.90;95.90;;;;;;5034337;28;20432;-56
2023/09/30 08:54:36;;;;;;;19.40;6.00;;;;;;;;;;5030465;28;20080;-59
2023/09/30 08:57:22;;;;;;;17.23;5.80;;;31.20;94.90;;;;;;5010966;28;20150;-59
2023/09/30 08:59:49;;;;;;;16.13;6.03;;;;;;;;;;5026047;28;20038;-59
2023/09/30 09:02:16;;;;;;;12.50;5.70;;;32.00;94.50;;;;;;5010902;28;20363;-59
2023/09/30 09:04:43;;;;;;;18.15;6.03;;;;;;;;;;5011343;28;20052;-59
2023/09/30 09:07:09;;;;;;;14.75;5.82;;;;;;;;;;5011062;28;20054;-59
2023/09/30 09:09:35;;;;;;;14.13;6.00;;;;;;;;;;5008782;28;20049;-59
2023/09/30 09:12:01;;;;;;;14.93;6.65;;;33.40;92.90;;;;;;5009948;28;20050;-59
2023/09/30 09:14:46;;;;;;;22.45;7.85;;;33.10;93.00;;;;;;5010089;28;20181;-59
2023/09/30 09:17:13;;;;;;;10.85;6.15;;;;;;;;;;5008657;28;20045;-59
2023/09/30 09:19:39;;;;;;;16.38;6.35;;;33.10;99.90;;;;;;5009920;28;20053;-59
2023/09/30 09:22:06;;;;;;;11.90;5.90;;;31.90;93.00;;;;;;5010337;28;20026;-59
2023/09/30 09:24:37;;;;;;;25.90;7.22;;;32.40;93.00;;;;;;5011779;28;20041;-58
2023/09/30 09:27:09;;;;;;;10.57;5.18;;;32.90;92.70;;;;;;5034617;28;20532;-57
2023/09/30 09:29:36;;;;;;;12.98;5.28;;;32.20;92.50;;;;;;5054849;28;20555;-57
2023/09/30 09:32:12;;;;;;;11.80;5.40;;;31.80;96.90;;;;;;5056401;28;20500;-57
2023/09/30 09:34:38;;;;;;;10.48;5.60;;;;;;;;;;5055621;28;20029;-57
2023/09/30 09:37:20;;;;;;;13.57;5.28;;;32.40;94.50;;;;;;5056239;28;20380;-57
2023/09/30 09:39:55;;;;;;;9.85;5.35;;;32.90;93.50;;;;;;5055194;28;20051;-57
2023/09/30 09:42:31;;;;;;;14.40;5.82;;;32.40;99.90;;;;;;5055534;28;20060;-58
2023/09/30 09:45:05;;;;;;;10.13;5.10;;;32.30;94.20;;;;;;5036427;28;20079;-57
2023/09/30 09:47:32;;;;;;;10.27;5.43;;;32.00;96.40;;;;;;5033996;28;20046;-58
2023/09/30 09:49:59;;;;;;;12.95;5.78;;;31.90;96.30;;;;;;5036139;28;20481;-57
2023/09/30 09:52:25;;;;;;;11.02;5.88;;;32.20;99.30;;;;;;5035951;28;20559;-57
2023/09/30 09:54:51;;;;;;;13.15;5.75;;;32.20;99.50;;;;;;5036507;28;20036;-57
2023/09/30 09:57:18;;;;;;;13.82;5.10;;;32.20;99.20;;;;;;5035944;28;20042;-56
2023/09/30 09:59:47;;;;;;;12.68;5.53;;;32.50;99.90;;;;;;5055238;28;20040;-57
2023/09/30 10:02:14;;;;;;;14.43;5.28;;;;;;;;;;5055865;28;20025;-58
2023/09/30 10:04:42;;;;;;;12.00;5.78;;;;;;;;;;5053850;28;20021;-58
2023/09/30 10:07:10;;;;;;;13.93;5.70;;;;;;;;;;5052963;28;20160;-55
2023/09/30 10:09:37;;;;;;;9.38;6.20;;;33.10;98.40;;;;;;5055032;28;20044;-55
2023/09/30 10:12:04;;;;;;;9.98;6.60;;;;;;;;;;5055584;28;20092;-55
2023/09/30 10:14:35;;;;;;;11.45;5.72;;;;;;;;;;5055575;28;20518;-55
2023/09/30 10:17:03;;;;;;;13.82;4.68;;;;;;;;;;5055979;28;20469;-54
2023/09/30 10:19:30;;;;;;;10.30;5.18;;;32.80;93.80;;;;;;5055679;28;20025;-55
2023/09/30 10:22:19;;;;;;;9.65;5.20;;;32.80;90.90;;;;;;5055471;28;20477;-55
2023/09/30 10:24:46;;;;;;;10.15;5.45;;;32.70;91.70;;;;;;5055618;28;20057;-55
2023/09/30 10:27:36;;;;;;;10.75;5.28;;;;;;;;;;5055673;28;20107;-54
2023/09/30 10:30:10;;;;;;;12.32;5.35;;;;;;;;;;5055441;28;20089;-55
2023/09/30 10:32:51;;;;;;;15.02;5.50;;;34.50;93.50;;;;;;5055115;28;20508;-55
2023/09/30 10:35:20;;;;;;;11.70;5.25;;;;;;;;;;5054279;28;20055;-55
2023/09/30 10:37:48;;;;;;;10.13;5.32;;;35.10;89.60;;;;;;5051993;28;20032;-55
2023/09/30 10:40:31;;;;;;;10.13;5.32;;;;;;;;;;5052752;28;20060;-53
2023/09/30 10:42:57;;;;;;;14.55;5.63;;;34.90;89.80;;;;;;5050692;28;20400;-56
2023/09/30 10:45:43;;;;;;;12.13;5.03;;;;;;;;;;5054330;28;20542;-58
2023/09/30 10:48:32;;;;;;;9.90;5.47;;;35.30;87.30;;;;;;5054813;28;20059;-53
2023/09/30 10:51:10;;;;;;;11.68;5.70;;;35.30;88.90;;;;;;5054854;28;20107;-54
2023/09/30 10:53:45;;;;;;;15.70;4.82;;;35.20;89.40;;;;;;5054433;28;20037;-57
2023/09/30 10:56:11;;;;;;;12.80;5.28;;;35.20;89.50;;;;;;5054189;28;20029;-56
2023/09/30 10:58:40;;;;;;;10.10;5.50;;;35.10;89.30;;;;;;5054470;28;20098;-55
2023/09/30 11:01:07;;;;;;;9.43;5.03;;;35.50;90.50;;;;;;5054688;28;20024;-55
2023/09/30 11:03:33;;;;;;;9.73;5.78;;;35.50;88.10;;;;;;5053522;28;20025;-56
2023/09/30 11:05:59;;;;;;;9.40;4.88;;;35.20;87.90;;;;;;5054571;28;20404;-58
2023/09/30 11:08:29;;;;;;;10.20;5.05;;;34.70;88.20;;;;;;5055539;28;20028;-56
2023/09/30 11:10:56;;;;;;;6.93;5.20;;;;;;;;;;5039431;28;20036;-57
2023/09/30 11:13:23;;;;;;;9.68;5.68;;;;;;;;;;5039358;28;20412;-54
2023/09/30 11:16:01;;;;;;;13.65;5.32;;;;;;;;;;5055304;28;20063;-54
2023/09/30 11:18:27;;;;;;;10.25;4.95;;;34.70;96.80;;;;;;5054553;28;20072;-54
2023/09/30 11:21:03;;;;;;;7.63;5.28;;;;;;;;;;5054268;28;20053;-53
2023/09/30 11:23:29;;;;;;;12.15;5.53;;;34.90;99.20;;;;;;5054542;28;20079;-54
2023/09/30 11:25:55;;;;;;;9.05;4.80;;;;;;;;;;5054187;28;20428;-54
2023/09/30 11:28:22;;;;;;;11.35;5.10;;;33.60;98.90;;;;;;5054418;28;20112;-55
2023/09/30 11:30:55;;;;;;;11.68;4.75;;;;;;;;;;5003502;28;20047;-54
2023/09/30 11:33:22;;;;;;;8.05;5.07;;;33.20;94.00;;;;;;5053998;28;20123;-56
2023/09/30 11:36:08;;;;;;;13.02;4.72;;;33.60;94.70;;;;;;5054549;28;20477;-54
2023/09/30 11:38:35;;;;;;;10.00;5.28;;;33.50;94.80;;;;;;5020401;28;20102;-54
2023/09/30 11:41:06;;;;;;;10.23;5.10;;;33.60;94.60;;;;;;5053968;28;20029;-56
2023/09/30 11:43:33;;;;;;;8.90;4.50;;;33.80;88.00;;;;;;5054393;28;20095;-54
2023/09/30 11:46:13;;;;;;;8.45;5.35;;;34.00;91.20;;;;;;5054059;28;20037;-54
2023/09/30 11:49:02;;;;;;;11.23;5.07;;;33.20;86.20;;;;;;5052496;28;20053;-55
2023/09/30 11:51:29;;;;;;;7.85;4.38;;;33.30;84.40;;;;;;5053912;28;20037;-55
2023/09/30 11:53:57;;;;;;;7.03;4.45;;;33.50;85.10;;;;;;5053527;28;20048;-54
2023/09/30 11:56:28;;;;;;;8.68;4.10;;;33.70;87.50;;;;;;5054040;28;20089;-54
2023/09/30 11:58:54;;;;;;;;;;;;;;;;;;5054071;28;20044;-55
2023/09/30 12:01:21;;;;;;;11.70;4.65;;;;;;;;;;5053219;28;20281;-55
2023/09/30 12:03:48;;;;;;;7.57;4.60;;;33.50;84.20;;;;;;5053752;28;20354;-55
2023/09/30 12:06:16;;;;;;;13.25;5.55;;;33.50;84.90;;;;;;5053790;28;20029;-54
2023/09/30 12:08:42;;;;;;;8.02;4.28;;;;;;;;;;5053417;28;20497;-55
2023/09/30 12:11:08;;;;;;;11.63;4.53;;;33.00;85.40;;;;;;5053391;28;20120;-53
2023/09/30 12:13:34;;;;;;;10.27;4.50;;;33.00;85.30;;;;;;5018536;28;20131;-53
2023/09/30 12:16:00;;;;;;;7.05;4.38;;;33.50;91.00;;;;;;5053537;28;20120;-56
2023/09/30 12:18:26;;;;;;;6.97;4.53;;;33.30;90.10;;;;;;5001961;28;20514;-54
2023/09/30 12:20:53;;;;;;;8.90;4.70;;;33.10;85.60;;;;;;5018774;28;20080;-56
2023/09/30 12:23:19;;;;;;;11.10;5.22;;;33.20;86.00;;;;;;5018303;28;20041;-53
2023/09/30 12:25:46;;;;;;;7.70;4.00;;;;;;;;;;5053090;28;20029;-56
2023/09/30 12:28:14;;;;;;;10.00;4.97;;;;;;;;;;5053365;28;20091;-55
2023/09/30 12:30:40;;;;;;;7.50;4.05;;;;;;;;;;5051706;28;20038;-54
2023/09/30 12:33:06;;;;;;;8.32;4.90;;;;;;;;;;5052125;28;20381;-56
2023/09/30 12:35:33;;;;;;;11.23;4.72;;;;;;;;;;5051850;28;20123;-55
2023/09/30 12:37:59;;;;;;;8.82;4.95;;;32.20;90.50;;;;;;5052993;28;20021;-55
2023/09/30 12:40:25;;;;;;;8.77;4.50;;;32.20;92.20;;;;;;5068306;28;20373;-56
2023/09/30 12:42:51;;;;;;;11.45;4.40;;;32.80;83.70;;;;;;5053551;28;20036;-55
2023/09/30 12:45:18;;;;;;;6.00;3.95;;;32.80;83.30;;;;;;5052897;28;20035;-57
2023/09/30 12:47:44;;;;;;;6.97;4.40;;;33.40;97.10;;;;;;5052834;28;20056;-56
2023/09/30 12:50:10;;;;;;;7.72;3.88;;;;;;;;;;5053047;28;20059;-55
2023/09/30 12:52:38;;;;;;;6.63;3.75;;;36.20;90.40;;;;;;5052889;28;20086;-55
2023/09/30 12:55:05;;;;;;;8.40;4.05;;;33.00;95.80;;;;;;5052746;28;20468;-57
2023/09/30 12:57:31;;;;;;;9.90;3.92;;;;;;;;;;5052925;28;20040;-55
2023/09/30 12:59:57;;;;;;;9.27;3.75;;;32.70;92.60;;;;;;5053776;28;20032;-55